メインページ
METAR-TAF:

METAR-TAF

空港 :

Ciudad Obregón, メキシコ

緯度: 27-24N, 経度: 109-50W, 海抜: 62m

現時点の気象観測

当レポートは37分前の23:40(UTC)に作成
南西の風 6kt
気温 29°C
湿度 74%
気圧 1009 hPa
視程: 16.1km
高度3500ftの雲はほとんどない
高度8000ftの雲は散在している

METAR: MMCN 202340Z 22006KT 10SM FEW035 SCT080 29/24 A2979 RMK SLP088 8/460 CB 1-2 QUAD

時間: 17:17 (00:17 UTC)

予報

当レポートは2時間45分前の21:32(UTC)に作成
予報は20日の 18時(UTC)から 21日の 18時(UTC)まで有効
東/南東の風 10kt
視程: 10km
高度2500ftの曇り
20日の 2000時(UTC)から
西/南西の風 12kt
視程: 10km
高度3000ftの千切れ雲あり
高度25000ftの千切れ雲あり
20日の 20時(UTC)から 21日の 00時(UTC)まで一時的に
視程: 4.8km
高度2000ftの千切れ雲あり, 積乱雲.
激しい雷雨, 雨
21日の 0300時(UTC)から
北/北西の風 12kt
視程: 10km
高度8000ftの千切れ雲あり

TAF: MMCN 202132Z 2018/2118 12010KT P6SM OVC025 FM202000 24012KT P6SM BKN030 BKN250 TEMPO 2020/2100 3SM TSRA BKN020CB FM210300 34012KT P6SM BKN080

4,000以上の空港の気象観測と天気予報(METAR報とTAF報)

利用可能な観測所は地図上に黄色い丸と赤い丸で示す。

丸の上にカーソルを重ねると観測所名を参照できる。

次にクリックすると気象観測と天気予報を参照できる。

マップの切り替え:黒色「×」印の緑ボタンをクリックして拡大、「-」印の緑ボタンをクリックして縮小、緑色の三角印をクリックして隣りの地図に切り替え


METAR-TAF: